Time;durP1;ratioP1;P1;durP2;ratioP2;P2;SDS_P1;SDS_P2;PMS_P1;PMS_P2;Temp;Humidity;BMP_temperature;BMP_pressure;BME280_temperature;BME280_humidity;BME280_pressure;Samples;Min_cycle;Max_cycle;Signal;HPM_P1;HPM_P2
2022/03/14 00:01:42;;;;;;;3.43;3.13;;;;;;;;;;5009449;28;20501;-72
2022/03/14 00:04:09;;;;;;;3.97;3.30;;;;;;;;;;5009701;28;20535;-72
2022/03/14 00:06:37;;;;;;;4.10;3.63;;;;;;;;;;5009794;28;20935;-74
2022/03/14 00:09:07;;;;;;;3.97;3.57;;;;;;;;;;5011776;28;20490;-73
2022/03/14 00:11:37;;;;;;;3.40;2.90;;;;;;;;;;5011699;28;20451;-73
2022/03/14 00:14:09;;;;;;;4.10;3.40;;;;;;;;;;4997159;28;20466;-72
2022/03/14 00:16:39;;;;;;;5.17;3.47;;;;;;;;;;4996498;28;20811;-74
2022/03/14 00:19:06;;;;;;;3.60;3.30;;;;;;;;;;4989250;28;20971;-72
2022/03/14 00:21:35;;;;;;;3.33;3.03;;;;;;;;;;4972466;28;20448;-72
2022/03/14 00:24:02;;;;;;;4.33;3.63;;;;;;;;;;4987506;28;20472;-74
2022/03/14 00:26:30;;;;;;;4.80;3.83;;;;;;;;;;4989930;28;20545;-76
2022/03/14 00:28:57;;;;;;;3.83;3.50;;;;;;;;;;4989807;28;20486;-72
2022/03/14 00:31:26;;;;;;;6.10;3.43;;;;;;;;;;4991558;28;20518;-71
2022/03/14 00:33:53;;;;;;;4.30;3.80;;;;;;;;;;4991928;28;20451;-71
2022/03/14 00:36:20;;;;;;;3.77;3.40;;;;;;;;;;4995820;28;20441;-72
2022/03/14 00:38:48;;;;;;;3.33;3.03;;;;;;;;;;4996387;28;20462;-73
2022/03/14 00:41:16;;;;;;;3.33;2.90;;;;;;;;;;4989263;28;20432;-73
2022/03/14 00:43:43;;;;;;;2.83;2.57;;;;;;;;;;4989317;28;20460;-73
2022/03/14 00:46:10;;;;;;;4.00;3.40;;;;;;;;;;4989940;28;20444;-72
2022/03/14 00:48:39;;;;;;;3.23;2.93;;;;;;;;;;4990025;28;20989;-72
2022/03/14 00:51:06;;;;;;;4.00;3.50;;;;;;;;;;4995747;28;20944;-73
2022/03/14 00:53:34;;;;;;;3.73;3.43;;;;;;;;;;5011158;28;20517;-73
2022/03/14 00:56:02;;;;;;;4.87;3.60;;;;;;;;;;5011048;28;20446;-72
2022/03/14 00:58:29;;;;;;;3.60;3.30;;;;;;;;;;4997838;28;21033;-72
2022/03/14 01:00:57;;;;;;;4.73;3.17;;;;;;;;;;4996295;28;20505;-73
2022/03/14 01:03:24;;;;;;;3.63;3.30;;;;;;;;;;4988268;28;20467;-72
2022/03/14 01:05:52;;;;;;;2.97;2.77;;;;;;;;;;4989325;28;20436;-72
2022/03/14 01:08:19;;;;;;;3.80;3.20;;;;;;;;;;4993007;28;20483;-73
2022/03/14 01:10:48;;;;;;;3.57;3.27;;;;;;;;;;4993186;28;20440;-73
2022/03/14 01:13:15;;;;;;;3.97;3.03;;;;;;;;;;4993075;28;20482;-71
2022/03/14 01:15:42;;;;;;;3.50;3.20;;;;;;;;;;4994949;28;20540;-72
2022/03/14 01:18:09;;;;;;;3.80;3.40;;;;;;;;;;4994918;28;20440;-72
2022/03/14 01:20:36;;;;;;;3.73;3.23;;;;;;;;;;4998036;28;20968;-74
2022/03/14 01:23:08;;;;;;;3.47;3.17;;;;;;;;;;4998988;28;20828;-72
2022/03/14 01:25:36;;;;;;;3.03;2.73;;;;;;;;;;5010400;28;20878;-72
2022/03/14 01:28:03;;;;;;;3.27;2.93;;;;;;;;;;5012090;28;20443;-72
2022/03/14 01:30:31;;;;;;;4.07;3.40;;;;;;;;;;5012272;28;20545;-72
2022/03/14 01:32:59;;;;;;;4.40;3.80;;;;;;;;;;5012536;28;20475;-73
2022/03/14 01:35:27;;;;;;;2.90;2.60;;;;;;;;;;5011798;28;21018;-71
2022/03/14 01:37:54;;;;;;;3.90;3.33;;;;;;;;;;5014050;28;20435;-72
2022/03/14 01:40:23;;;;;;;3.70;3.40;;;;;;;;;;5013997;28;20439;-73
2022/03/14 01:42:50;;;;;;;4.13;3.37;;;;;;;;;;5002590;28;20455;-73
2022/03/14 01:45:18;;;;;;;3.90;3.50;;;;;;;;;;4998434;28;20447;-74
2022/03/14 01:47:45;;;;;;;7.20;3.57;;;;;;;;;;4993141;28;20424;-73
2022/03/14 01:50:14;;;;;;;4.10;3.70;;;;;;;;;;4992271;28;21020;-73
2022/03/14 01:52:41;;;;;;;3.30;3.00;;;;;;;;;;4992225;28;20471;-74
2022/03/14 01:55:09;;;;;;;4.50;3.77;;;;;;;;;;4992756;28;20444;-73
2022/03/14 01:57:38;;;;;;;4.20;3.27;;;;;;;;;;4974662;28;20471;-74
2022/03/14 02:00:07;;;;;;;4.90;4.40;;;;;;;;;;4994184;28;20451;-75
2022/03/14 02:02:34;;;;;;;4.30;3.73;;;;;;;;;;4993932;28;20463;-74
2022/03/14 02:05:01;;;;;;;7.33;4.10;;;;;;;;;;4996719;28;20435;-75
2022/03/14 02:07:28;;;;;;;4.40;4.00;;;;;;;;;;4998472;28;20463;-74
2022/03/14 02:09:56;;;;;;;6.77;4.97;;;;;;;;;;4993190;28;21066;-75
2022/03/14 02:12:23;;;;;;;4.90;4.40;;;;;;;;;;4991455;28;20829;-74
2022/03/14 02:14:51;;;;;;;4.50;3.80;;;;;;;;;;4991831;28;20443;-76
2022/03/14 02:17:20;;;;;;;6.67;4.80;;;;;;;;;;4991967;28;20948;-74
2022/03/14 02:19:47;;;;;;;6.23;5.03;;;;;;;;;;4991685;28;20436;-74
2022/03/14 02:22:16;;;;;;;5.83;5.20;;;;;;;;;;5013150;28;20475;-74
2022/03/14 02:24:43;;;;;;;5.73;4.90;;;;;;;;;;4996071;28;20440;-73
2022/03/14 02:27:11;;;;;;;4.90;4.50;;;;;;;;;;5004986;28;20432;-74
2022/03/14 02:29:39;;;;;;;6.30;4.83;;;;;;;;;;4980709;28;20495;-74
2022/03/14 02:32:07;;;;;;;5.40;4.80;;;;;;;;;;4992930;28;20475;-74
2022/03/14 02:34:34;;;;;;;7.13;5.20;;;;;;;;;;4991404;28;20436;-75
2022/03/14 02:37:02;;;;;;;6.87;5.03;;;;;;;;;;4991731;28;20463;-73
2022/03/14 02:39:32;;;;;;;5.90;4.90;;;;;;;;;;4991627;28;20440;-74
2022/03/14 02:42:00;;;;;;;5.83;4.70;;;;;;;;;;4991114;28;20468;-74
2022/03/14 02:44:28;;;;;;;5.40;4.90;;;;;;;;;;4993223;28;20444;-76
2022/03/14 02:46:55;;;;;;;6.67;5.30;;;;;;;;;;4993577;28;20800;-74
2022/03/14 02:49:22;;;;;;;8.30;5.70;;;;;;;;;;4978127;28;20482;-75
2022/03/14 02:51:51;;;;;;;9.97;6.20;;;;;;;;;;4997517;28;20460;-72
2022/03/14 02:54:18;;;;;;;10.63;6.40;;;;;;;;;;4993563;28;20424;-73
2022/03/14 02:56:47;;;;;;;7.00;5.90;;;;;;;;;;4990863;28;20471;-75
2022/03/14 02:59:14;;;;;;;7.10;5.77;;;;;;;;;;4990681;28;20472;-73
2022/03/14 03:01:41;;;;;;;7.20;5.87;;;;;;;;;;4991070;28;20436;-75
2022/03/14 03:04:09;;;;;;;8.67;6.33;;;;;;;;;;4991094;28;20448;-74
2022/03/14 03:06:37;;;;;;;8.97;6.50;;;;;;;;;;5010454;28;20461;-76
2022/03/14 03:09:05;;;;;;;8.00;5.67;;;;;;;;;;5012886;28;20996;-73
2022/03/14 03:11:32;;;;;;;9.63;5.93;;;;;;;;;;5005014;28;20431;-75
2022/03/14 03:14:00;;;;;;;7.83;6.50;;;;;;;;;;4997237;28;20937;-74
2022/03/14 03:16:28;;;;;;;7.90;6.70;;;;;;;;;;4993465;28;21003;-77
2022/03/14 03:18:55;;;;;;;9.17;6.80;;;;;;;;;;4990465;28;20439;-74
2022/03/14 03:21:22;;;;;;;8.63;6.73;;;;;;;;;;4990710;28;20447;-76
2022/03/14 03:23:50;;;;;;;12.50;7.30;;;;;;;;;;4990363;28;20484;-77
2022/03/14 03:26:17;;;;;;;7.43;6.73;;;;;;;;;;4990618;28;20458;-75
2022/03/14 03:28:44;;;;;;;9.50;7.07;;;;;;;;;;4974590;28;20451;-75
2022/03/14 03:31:16;;;;;;;12.13;7.00;;;;;;;;;;4992620;28;20522;-74
2022/03/14 03:33:44;;;;;;;9.23;7.50;;;;;;;;;;4993861;28;20466;-75
2022/03/14 03:36:11;;;;;;;10.80;8.10;;;;;;;;;;4996554;28;20447;-75
2022/03/14 03:38:38;;;;;;;8.90;6.83;;;;;;;;;;5002170;28;20438;-73
2022/03/14 03:41:05;;;;;;;10.60;6.50;;;;;;;;;;5009923;28;20967;-75
2022/03/14 03:43:33;;;;;;;8.50;7.60;;;;;;;;;;5009691;28;20459;-75
2022/03/14 03:46:00;;;;;;;10.13;7.40;;;;;;;;;;5010051;28;20785;-73
2022/03/14 03:48:28;;;;;;;13.00;6.87;;;;;;;;;;5010204;28;20696;-74
2022/03/14 03:50:56;;;;;;;12.00;6.80;;;;;;;;;;5010688;28;20501;-73
2022/03/14 03:53:23;;;;;;;9.70;6.53;;;;;;;;;;5011793;28;20462;-73
2022/03/14 03:55:50;;;;;;;8.30;5.80;;;;;;;;;;5007838;28;20521;-75
2022/03/14 03:58:17;;;;;;;7.70;6.17;;;;;;;;;;4979460;28;20446;-73
2022/03/14 04:00:44;;;;;;;7.10;6.40;;;;;;;;;;5000533;28;20466;-73
2022/03/14 04:03:12;;;;;;;7.00;6.00;;;;;;;;;;5009425;28;20467;-74
2022/03/14 04:05:41;;;;;;;10.30;6.77;;;;;;;;;;5009617;28;20787;-73
2022/03/14 04:08:10;;;;;;;12.73;7.33;;;;;;;;;;5009143;28;20808;-72
2022/03/14 04:10:38;;;;;;;8.40;6.37;;;;;;;;;;5009955;28;20548;-74
2022/03/14 04:13:06;;;;;;;8.63;6.80;;;;;;;;;;5002145;28;20470;-73
2022/03/14 04:15:40;;;;;;;7.50;6.70;;;;;;;;;;4996452;28;20458;-73
2022/03/14 04:18:08;;;;;;;8.47;6.23;;;;;;;;;;5004559;28;20825;-74
2022/03/14 04:20:36;;;;;;;6.80;6.10;;;;;;;;;;5009367;28;20866;-74
2022/03/14 04:23:04;;;;;;;9.63;6.90;;;;;;;;;;5009095;28;20474;-74
2022/03/14 04:25:31;;;;;;;7.60;6.00;;;;;;;;;;5010065;28;20435;-75
2022/03/14 04:27:59;;;;;;;13.23;7.20;;;;;;;;;;5009692;28;20435;-76
2022/03/14 04:30:26;;;;;;;8.03;6.77;;;;;;;;;;5010646;28;20889;-77
2022/03/14 04:32:53;;;;;;;10.43;6.07;;;;;;;;;;5011440;28;20471;-74
2022/03/14 04:35:22;;;;;;;9.27;6.50;;;;;;;;;;5003523;28;20427;-73
2022/03/14 04:37:49;;;;;;;7.70;6.00;;;;;;;;;;4996141;28;20530;-73
2022/03/14 04:40:17;;;;;;;7.33;6.10;;;;;;;;;;5003315;28;20438;-75
2022/03/14 04:42:44;;;;;;;9.53;6.27;;;;;;;;;;5012197;28;20450;-73
2022/03/14 04:45:12;;;;;;;7.00;5.80;;;;;;;;;;5013073;28;20762;-73
2022/03/14 04:47:39;;;;;;;7.67;6.80;;;;;;;;;;5013212;28;20435;-76
2022/03/14 04:50:07;;;;;;;6.33;5.73;;;;;;;;;;5012987;28;21013;-74
2022/03/14 04:52:34;;;;;;;7.73;6.53;;;;;;;;;;5014127;28;20482;-74
2022/03/14 04:55:02;;;;;;;8.60;7.27;;;;;;;;;;5014723;28;20947;-75
2022/03/14 04:57:31;;;;;;;8.67;7.13;;;;;;;;;;5008013;28;20522;-75
2022/03/14 04:59:58;;;;;;;9.00;7.00;;;;;;;;;;4999593;28;20452;-75
2022/03/14 05:02:25;;;;;;;9.40;6.23;;;;;;;;;;4995867;28;20527;-74
2022/03/14 05:04:52;;;;;;;12.87;6.90;;;;;;;;;;4992559;28;20456;-74
2022/03/14 05:07:20;;;;;;;7.70;6.50;;;;;;;;;;4992877;28;20450;-74
2022/03/14 05:09:47;;;;;;;7.10;6.10;;;;;;;;;;4992935;28;20494;-75
2022/03/14 05:12:14;;;;;;;10.77;7.90;;;;;;;;;;4976125;28;20467;-73
2022/03/14 05:14:42;;;;;;;7.23;5.83;;;;;;;;;;5009939;28;20463;-74
2022/03/14 05:17:10;;;;;;;9.47;6.37;;;;;;;;;;5014398;28;20543;-73
2022/03/14 05:19:38;;;;;;;7.50;6.17;;;;;;;;;;5009334;28;20427;-72
2022/03/14 05:22:05;;;;;;;7.50;6.37;;;;;;;;;;4999235;28;20471;-73
2022/03/14 05:24:32;;;;;;;8.60;6.33;;;;;;;;;;5004152;28;20443;-75
2022/03/14 05:26:59;;;;;;;6.70;5.70;;;;;;;;;;5012432;28;20443;-73
2022/03/14 05:29:26;;;;;;;9.23;6.37;;;;;;;;;;5012110;28;20439;-73
2022/03/14 05:31:55;;;;;;;7.90;5.80;;;;;;;;;;5012060;28;20463;-75
2022/03/14 05:34:22;;;;;;;7.83;5.87;;;;;;;;;;5012468;28;20458;-73
2022/03/14 05:36:50;;;;;;;6.90;5.20;;;;;;;;;;5013200;28;20450;-74
2022/03/14 05:39:17;;;;;;;8.87;5.80;;;;;;;;;;5014987;28;20457;-73
2022/03/14 05:41:44;;;;;;;6.73;5.23;;;;;;;;;;5010048;28;20781;-75
2022/03/14 05:44:11;;;;;;;6.10;4.77;;;;;;;;;;4998745;28;20431;-77
2022/03/14 05:46:38;;;;;;;5.73;4.57;;;;;;;;;;4996285;28;20444;-75
2022/03/14 05:49:07;;;;;;;5.60;4.70;;;;;;;;;;4992201;28;20527;-75
2022/03/14 05:51:36;;;;;;;7.40;4.90;;;;;;;;;;4991897;28;20492;-73
2022/03/14 05:54:04;;;;;;;5.17;4.67;;;;;;;;;;4990797;28;20483;-74
2022/03/14 05:56:31;;;;;;;4.60;3.97;;;;;;;;;;4992304;28;20801;-73
2022/03/14 05:58:58;;;;;;;4.20;3.80;;;;;;;;;;5005521;28;20485;-74
2022/03/14 06:01:26;;;;;;;4.63;3.83;;;;;;;;;;5014067;28;20539;-73
2022/03/14 06:03:53;;;;;;;4.40;3.70;;;;;;;;;;5010538;28;20436;-73
2022/03/14 06:06:23;;;;;;;3.93;3.57;;;;;;;;;;4998051;28;21034;-74
2022/03/14 06:08:50;;;;;;;3.80;2.90;;;;;;;;;;5001354;28;20836;-75
2022/03/14 06:11:17;;;;;;;7.80;3.70;;;;;;;;;;5011114;28;20489;-74
2022/03/14 06:13:44;;;;;;;5.10;3.87;;;;;;;;;;5011213;28;20459;-74
2022/03/14 06:16:13;;;;;;;4.90;3.70;;;;;;;;;;5011635;28;20445;-74
2022/03/14 06:18:40;;;;;;;4.27;3.87;;;;;;;;;;5011629;28;20434;-75
2022/03/14 06:21:07;;;;;;;5.40;3.53;;;;;;;;;;5012068;28;20462;-74
2022/03/14 06:23:36;;;;;;;5.33;3.47;;;;;;;;;;5012891;28;20475;-74
2022/03/14 06:26:03;;;;;;;4.50;3.30;;;;;;;;;;5011083;28;20794;-74
2022/03/14 06:28:30;;;;;;;3.83;3.43;;;;;;;;;;4997946;28;20475;-73
2022/03/14 06:30:57;;;;;;;3.60;3.30;;;;;;;;;;4997181;28;20471;-73
2022/03/14 06:33:24;;;;;;;5.07;4.00;;;;;;;;;;4990721;28;20478;-73
2022/03/14 06:35:52;;;;;;;5.03;4.30;;;;;;;;;;4991287;28;20446;-75
2022/03/14 06:38:19;;;;;;;4.50;4.07;;;;;;;;;;4974316;28;20452;-74
2022/03/14 06:40:48;;;;;;;4.70;4.03;;;;;;;;;;4991871;28;20447;-73
2022/03/14 06:43:17;;;;;;;4.80;4.10;;;;;;;;;;5001955;28;20540;-73
2022/03/14 06:45:47;;;;;;;6.03;3.53;;;;;;;;;;5012906;28;20450;-74
2022/03/14 06:48:14;;;;;;;5.73;3.70;;;;;;;;;;5011524;28;20962;-75
2022/03/14 06:50:41;;;;;;;8.37;5.43;;;;;;;;;;4997624;28;20491;-75
2022/03/14 06:53:09;;;;;;;7.63;4.60;;;;;;;;;;4999223;28;20804;-74
2022/03/14 06:55:39;;;;;;;7.60;5.30;;;;;;;;;;4992634;28;20965;-76
2022/03/14 06:58:08;;;;;;;8.60;5.07;;;;;;;;;;5010300;28;20449;-73
2022/03/14 07:00:37;;;;;;;8.00;5.10;;;;;;;;;;5010854;28;20454;-75
2022/03/14 07:03:04;;;;;;;10.40;5.37;;;;;;;;;;5010700;28;20473;-75
2022/03/14 07:05:31;;;;;;;8.73;5.60;;;;;;;;;;5010852;28;20550;-73
2022/03/14 07:07:58;;;;;;;8.80;5.37;;;;;;;;;;5012634;28;20526;-74
2022/03/14 07:10:26;;;;;;;10.30;5.53;;;;;;;;;;5012266;28;20487;-75
2022/03/14 07:12:54;;;;;;;6.60;5.17;;;;;;;;;;4997309;28;20466;-73
2022/03/14 07:15:25;;;;;;;6.87;5.40;;;;;;;;;;4998285;28;20446;-78
2022/03/14 07:17:52;;;;;;;6.67;4.50;;;;;;;;;;5009812;28;20435;-75
2022/03/14 07:20:20;;;;;;;7.60;4.90;;;;;;;;;;4992974;28;20453;-74
2022/03/14 07:22:51;;;;;;;6.70;5.67;;;;;;;;;;5009899;28;20515;-77
2022/03/14 07:25:20;;;;;;;7.60;5.10;;;;;;;;;;5010163;28;20450;-76
2022/03/14 07:27:47;;;;;;;8.43;5.40;;;;;;;;;;5008615;28;20477;-73
2022/03/14 07:30:17;;;;;;;6.43;4.90;;;;;;;;;;4996585;28;20443;-73
2022/03/14 07:32:46;;;;;;;6.53;5.37;;;;;;;;;;4999545;28;20458;-75
2022/03/14 07:35:14;;;;;;;5.80;5.17;;;;;;;;;;5009160;28;20988;-76
2022/03/14 07:37:41;;;;;;;8.27;5.13;;;;;;;;;;5009149;28;20446;-75
2022/03/14 07:40:09;;;;;;;7.03;5.10;;;;;;;;;;5009055;28;20450;-76
2022/03/14 07:42:40;;;;;;;12.33;5.30;;;;;;;;;;5009650;28;20823;-75
2022/03/14 07:45:08;;;;;;;8.50;5.43;;;;;;;;;;5004766;28;20797;-78
2022/03/14 07:47:35;;;;;;;8.40;5.40;;;;;;;;;;4996541;28;20431;-75
2022/03/14 07:50:04;;;;;;;10.93;6.33;;;;;;;;;;5002031;28;20450;-74
2022/03/14 07:52:32;;;;;;;7.77;4.90;;;;;;;;;;5009584;28;20514;-75
2022/03/14 07:54:59;;;;;;;7.80;5.10;;;;;;;;;;5009544;28;20442;-74
2022/03/14 07:57:26;;;;;;;8.43;5.80;;;;;;;;;;5009801;28;20498;-73
2022/03/14 07:59:53;;;;;;;6.20;5.60;;;;;;;;;;5010079;28;20442;-79
2022/03/14 08:02:21;;;;;;;8.93;5.57;;;;;;;;;;5010906;28;20489;-73
2022/03/14 08:04:48;;;;;;;11.23;5.77;;;;;;;;;;5011854;28;20442;-76
2022/03/14 08:07:17;;;;;;;7.80;5.20;;;;;;;;;;5007676;28;20533;-77
2022/03/14 08:09:44;;;;;;;6.33;5.30;;;;;;;;;;4996569;28;20463;-76
2022/03/14 08:12:12;;;;;;;12.03;5.93;;;;;;;;;;5000385;28;20577;-75
2022/03/14 08:14:39;;;;;;;7.43;6.47;;;;;;;;;;5009520;28;20458;-81
2022/03/14 08:17:07;;;;;;;6.90;5.50;;;;;;;;;;5011478;28;20805;-76
2022/03/14 08:19:34;;;;;;;5.90;5.27;;;;;;;;;;5013906;28;20437;-77
2022/03/14 08:22:01;;;;;;;7.67;5.20;;;;;;;;;;5014273;28;20461;-76
2022/03/14 08:24:30;;;;;;;10.17;6.60;;;;;;;;;;5014911;28;20450;-78
2022/03/14 08:26:57;;;;;;;5.03;4.20;;;;;;;;;;5015523;28;20513;-75
2022/03/14 08:29:25;;;;;;;8.10;4.70;;;;;;;;;;5012850;28;20442;-77
2022/03/14 08:31:52;;;;;;;7.50;5.37;;;;;;;;;;5000841;28;20490;-80
2022/03/14 08:34:19;;;;;;;5.70;4.37;;;;;;;;;;4999058;28;20810;-75
2022/03/14 08:36:46;;;;;;;10.80;5.40;;;;;;;;;;4993561;28;20462;-74
2022/03/14 08:39:13;;;;;;;6.40;4.13;;;;;;;;;;4993740;28;20794;-76
2022/03/14 08:41:42;;;;;;;10.40;3.93;;;;;;;;;;4994198;28;20439;-76
2022/03/14 08:44:09;;;;;;;8.23;4.70;;;;;;;;;;4997136;28;20442;-74
2022/03/14 08:46:38;;;;;;;6.27;4.60;;;;;;;;;;4996208;28;20459;-78
2022/03/14 08:49:05;;;;;;;6.60;4.70;;;;;;;;;;4978928;28;20532;-78
2022/03/14 08:51:34;;;;;;;10.03;4.27;;;;;;;;;;4996055;28;20581;-80
2022/03/14 08:54:01;;;;;;;6.53;4.10;;;;;;;;;;4999797;28;20451;-76
2022/03/14 08:56:28;;;;;;;5.60;4.20;;;;;;;;;;4998886;28;20432;-77
2022/03/14 08:58:57;;;;;;;7.20;4.17;;;;;;;;;;4992681;28;20462;-82
2022/03/14 09:01:25;;;;;;;7.00;3.87;;;;;;;;;;4992895;28;20440;-77
2022/03/14 09:03:53;;;;;;;7.67;4.00;;;;;;;;;;4993297;28;20480;-74
2022/03/14 09:06:20;;;;;;;5.27;3.53;;;;;;;;;;4976145;28;21212;-77
2022/03/14 09:08:47;;;;;;;5.30;3.33;;;;;;;;;;5004918;28;20437;-77
2022/03/14 09:11:15;;;;;;;4.20;2.83;;;;;;;;;;5014666;28;20487;-76
2022/03/14 09:13:42;;;;;;;5.97;2.80;;;;;;;;;;5013524;28;20544;-74
2022/03/14 09:16:10;;;;;;;4.60;2.87;;;;;;;;;;4999316;28;20435;-81
2022/03/14 09:18:38;;;;;;;3.90;2.50;;;;;;;;;;5001787;28;20460;-79
2022/03/14 09:21:05;;;;;;;5.67;3.40;;;;;;;;;;5011917;28;20446;-81
2022/03/14 09:23:32;;;;;;;6.20;3.50;;;;;;;;;;5012019;28;20480;-75
2022/03/14 09:25:59;;;;;;;7.40;3.93;;;;;;;;;;5012773;28;20441;-78
2022/03/14 09:28:27;;;;;;;5.10;3.50;;;;;;;;;;5012397;28;20451;-77
2022/03/14 09:30:55;;;;;;;8.87;3.83;;;;;;;;;;5012840;28;20461;-77
2022/03/14 09:33:23;;;;;;;5.50;3.63;;;;;;;;;;5014323;28;20477;-75
2022/03/14 09:35:50;;;;;;;5.60;3.70;;;;;;;;;;5014266;28;20449;-73
2022/03/14 09:38:18;;;;;;;10.27;6.40;;;;;;;;;;4999149;28;20435;-75
2022/03/14 09:40:47;;;;;;;7.17;3.90;;;;;;;;;;4998475;28;20772;-78
2022/03/14 09:43:16;;;;;;;6.67;4.57;;;;;;;;;;4991521;28;20477;-76
2022/03/14 09:45:46;;;;;;;4.60;3.20;;;;;;;;;;4992046;28;20977;-76
2022/03/14 09:48:14;;;;;;;9.80;4.10;;;;;;;;;;4992208;28;20446;-79
2022/03/14 09:50:44;;;;;;;8.00;4.70;;;;;;;;;;4992710;28;20801;-75
2022/03/14 09:53:13;;;;;;;6.20;3.80;;;;;;;;;;4986325;28;20464;-78
2022/03/14 09:55:41;;;;;;;4.90;3.50;;;;;;;;;;5014226;28;20455;-78
2022/03/14 09:58:09;;;;;;;4.73;2.87;;;;;;;;;;4995859;28;20526;-80
2022/03/14 10:00:36;;;;;;;4.80;3.73;;;;;;;;;;4998326;28;20809;-75
2022/03/14 10:03:04;;;;;;;3.30;2.60;;;;;;;;;;5000294;28;20466;-73
2022/03/14 10:05:31;;;;;;;5.43;2.97;;;;;;;;;;5011023;28;20931;-77
2022/03/14 10:08:00;;;;;;;4.30;2.60;;;;;;;;;;5011288;28;20468;-79
2022/03/14 10:10:28;;;;;;;2.97;2.70;;;;;;;;;;5011913;28;20923;-77
2022/03/14 10:12:57;;;;;;;2.60;2.40;;;;;;;;;;5011627;28;20498;-81
2022/03/14 10:15:25;;;;;;;3.43;2.40;;;;;;;;;;5012299;28;20549;-77
2022/03/14 10:17:53;;;;;;;3.90;2.43;;;;;;;;;;5013459;28;20505;-73
2022/03/14 10:20:21;;;;;;;2.27;2.03;;;;;;;;;;5012812;28;20443;-76
2022/03/14 10:22:49;;;;;;;5.63;3.47;;;;;;;;;;4997945;28;20496;-75
2022/03/14 10:25:18;;;;;;;4.30;3.00;;;;;;;;;;4997831;28;20439;-76
2022/03/14 10:27:47;;;;;;;4.57;2.70;;;;;;;;;;4991048;28;20438;-79
2022/03/14 10:30:29;;;;;;;3.13;2.53;;;;;;;;;;4974830;28;20628;-76
2022/03/14 10:33:02;;;;;;;4.73;3.50;;;;;;;;;;4978346;28;20821;-73
2022/03/14 10:35:34;;;;;;;5.73;2.77;;;;;;;;;;4991805;28;20440;-79
2022/03/14 10:38:04;;;;;;;3.73;2.80;;;;;;;;;;4988170;28;20454;-74
2022/03/14 10:40:33;;;;;;;3.33;2.90;;;;;;;;;;4995193;28;20431;-79
2022/03/14 10:43:00;;;;;;;3.03;2.60;;;;;;;;;;5008355;28;20455;-76
2022/03/14 10:45:27;;;;;;;3.17;2.37;;;;;;;;;;4989482;28;20435;-75
2022/03/14 10:47:57;;;;;;;3.33;2.67;;;;;;;;;;5000842;28;20435;-75
2022/03/14 10:50:33;;;;;;;3.97;2.90;;;;;;;;;;5010586;28;20446;-75
2022/03/14 10:53:01;;;;;;;4.30;2.20;;;;;;;;;;4992787;28;20490;-75
2022/03/14 10:55:36;;;;;;;5.83;2.93;;;;;;;;;;5010963;28;20816;-74
2022/03/14 10:58:08;;;;;;;3.70;2.87;;;;;;;;;;5011302;28;20443;-76
2022/03/14 11:00:45;;;;;;;4.83;2.30;;;;;;;;;;4994642;28;20852;-76
2022/03/14 11:03:12;;;;;;;7.37;3.67;;;;;;;;;;5012298;28;20557;-78
2022/03/14 11:05:44;;;;;;;2.70;2.50;;;;;;;;;;5005471;28;20470;-76
2022/03/14 11:08:26;;;;;;;4.73;3.37;;;;;;;;;;4996693;28;20443;-75
2022/03/14 11:10:55;;;;;;;4.00;2.63;;;;;;;;;;4992235;28;20443;-76
2022/03/14 11:13:22;;;;;;;3.67;2.70;;;;;;;;;;5006575;28;20491;-78
2022/03/14 11:15:49;;;;;;;4.53;3.00;;;;;;;;;;5009514;28;20443;-78
2022/03/14 11:18:16;;;;;;;4.67;2.87;;;;;;;;;;5010372;28;20447;-76
2022/03/14 11:20:44;;;;;;;2.83;2.03;;;;;;;;;;5009589;28;20534;-76
2022/03/14 11:23:12;;;;;;;5.43;2.70;;;;;;;;;;4996688;28;20964;-77
2022/03/14 11:25:40;;;;;;;3.20;2.30;;;;;;;;;;4999141;28;20454;-79
2022/03/14 11:28:08;;;;;;;2.80;2.27;;;;;;;;;;4991748;28;20477;-76
2022/03/14 11:30:38;;;;;;;3.20;2.20;;;;;;;;;;5009889;28;20431;-76
2022/03/14 11:33:05;;;;;;;2.83;2.00;;;;;;;;;;5009800;28;20501;-77
2022/03/14 11:35:32;;;;;;;2.67;2.07;;;;;;;;;;5010345;28;20453;-81
2022/03/14 11:38:01;;;;;;;3.40;2.20;;;;;;;;;;5010630;28;20462;-75
2022/03/14 11:40:29;;;;;;;5.40;2.27;;;;;;;;;;5011826;28;20449;-77
2022/03/14 11:42:56;;;;;;;4.70;2.30;;;;;;;;;;5011583;28;20549;-78
2022/03/14 11:45:25;;;;;;;2.77;2.20;;;;;;;;;;4997490;28;20466;-76
2022/03/14 11:47:53;;;;;;;5.13;2.17;;;;;;;;;;4996636;28;21611;-77
2022/03/14 11:50:22;;;;;;;2.90;2.07;;;;;;;;;;4989853;28;20447;-81
2022/03/14 11:52:50;;;;;;;3.97;2.10;;;;;;;;;;4989699;28;21037;-78
2022/03/14 11:55:19;;;;;;;3.60;2.40;;;;;;;;;;4988925;28;20450;-76
2022/03/14 11:57:47;;;;;;;4.03;2.20;;;;;;;;;;4989509;28;20444;-81
2022/03/14 12:00:32;;;;;;;4.97;2.33;;;;;;;;;;4991355;28;20443;-76
2022/03/14 12:03:01;;;;;;;3.10;1.80;;;;;;;;;;4992095;28;20895;-79
2022/03/14 12:05:43;;;;;;;4.27;2.37;;;;;;;;;;4991883;28;20849;-80
2022/03/14 12:08:32;;;;;;;3.47;1.60;;;;;;;;;;4954108;28;20432;-77
2022/03/14 12:11:24;;;;;;;1.70;1.40;;;;;;;;;;4957918;28;21497;-76
2022/03/14 12:13:51;;;;;;;2.07;1.53;;;;;;;;;;4967080;28;20483;-77
2022/03/14 12:16:33;;;;;;;2.93;1.40;;;;;;;;;;4967312;28;20985;-77
2022/03/14 12:19:02;;;;;;;2.40;1.20;;;;;;;;;;4967649;28;20966;-75
2022/03/14 12:21:44;;;;;;;1.97;1.57;;;;;;;;;;4968270;28;20448;-83
2022/03/14 12:24:18;;;;;;;4.77;2.10;;;;;;;;;;4977357;28;20452;-77
2022/03/14 12:26:46;;;;;;;4.80;2.20;;;;;;;;;;4974301;28;20443;-78
2022/03/14 12:29:28;;;;;;;3.53;1.70;;;;;;;;;;4984968;28;20898;-76
2022/03/14 12:32:10;;;;;;;3.23;1.53;;;;;;;;;;4986532;28;20735;-81
2022/03/14 12:34:40;;;;;;;5.60;2.73;;;;;;;;;;4986699;28;20933;-80
2022/03/14 12:37:24;;;;;;;3.63;2.27;;;;;;;;;;4987526;28;20466;-75
2022/03/14 12:39:51;;;;;;;9.73;2.40;;;;;;;;;;5003989;28;20795;-75
2022/03/14 12:42:23;;;;;;;4.90;2.30;;;;;;;;;;5011388;28;20994;-82
2022/03/14 12:45:05;;;;;;;6.63;2.67;;;;;;;;;;5009374;28;20450;-80
2022/03/14 12:47:32;;;;;;;5.63;3.57;;;;;;;;;;4994730;28;20963;-78
2022/03/14 12:50:00;;;;;;;4.60;2.80;;;;;;;;;;4999311;28;20430;-82
2022/03/14 12:52:29;;;;;;;4.50;3.10;;;;;;;;;;5008713;28;20497;-80
2022/03/14 12:54:57;;;;;;;4.43;3.13;;;;;;;;;;5009296;28;20816;-79
2022/03/14 12:57:24;;;;;;;5.73;2.83;;;;;;;;;;5009488;28;20443;-81
2022/03/14 12:59:58;;;;;;;4.20;2.77;;;;;;;;;;5008354;28;20451;-78
2022/03/14 13:02:27;;;;;;;4.83;2.40;;;;;;;;;;5010932;28;20485;-75
2022/03/14 13:04:55;;;;;;;6.23;3.10;;;;;;;;;;5013671;28;20443;-77
2022/03/14 13:07:23;;;;;;;3.90;2.40;;;;;;;;;;5011860;28;20799;-80
2022/03/14 13:09:52;;;;;;;5.80;2.87;;;;;;;;;;4999141;28;20529;-80
2022/03/14 13:12:19;;;;;;;4.50;2.57;;;;;;;;;;4997850;28;20490;-80
2022/03/14 13:14:47;;;;;;;3.17;2.50;;;;;;;;;;4992752;28;20804;-77
2022/03/14 13:17:23;;;;;;;3.10;1.90;;;;;;;;;;4993467;28;20808;-82
2022/03/14 13:19:50;;;;;;;3.40;2.10;;;;;;;;;;4991882;28;20442;-81
2022/03/14 13:22:17;;;;;;;2.90;2.13;;;;;;;;;;4993068;28;20983;-77
2022/03/14 13:24:47;;;;;;;2.80;2.20;;;;;;;;;;5007163;28;20764;-77
2022/03/14 13:27:14;;;;;;;3.67;2.27;;;;;;;;;;4996908;28;20450;-75
2022/03/14 13:29:44;;;;;;;3.67;2.17;;;;;;;;;;5011481;28;20450;-76
2022/03/14 13:32:16;;;;;;;4.20;2.30;;;;;;;;;;4999155;28;20443;-78
2022/03/14 13:34:43;;;;;;;2.53;2.30;;;;;;;;;;4997455;28;20440;-76
2022/03/14 13:37:11;;;;;;;5.10;2.33;;;;;;;;;;4992235;28;20443;-74
2022/03/14 13:39:40;;;;;;;3.03;2.30;;;;;;;;;;4992337;28;20439;-75
2022/03/14 13:42:09;;;;;;;5.83;2.20;;;;;;;;;;4992623;28;21122;-77
2022/03/14 13:44:39;;;;;;;3.53;2.20;;;;;;;;;;4992839;28;20970;-76
2022/03/14 13:47:06;;;;;;;4.40;2.27;;;;;;;;;;4993311;28;20526;-78
2022/03/14 13:49:33;;;;;;;2.37;2.07;;;;;;;;;;4994460;28;20444;-79
2022/03/14 13:52:01;;;;;;;4.23;2.10;;;;;;;;;;4994772;28;20443;-76
2022/03/14 13:54:29;;;;;;;4.67;2.70;;;;;;;;;;4998664;28;20534;-77
2022/03/14 13:57:02;;;;;;;9.17;2.77;;;;;;;;;;5002099;28;20432;-76
2022/03/14 13:59:31;;;;;;;10.97;3.00;;;;;;;;;;5011479;28;20534;-76
2022/03/14 14:01:59;;;;;;;4.70;2.60;;;;;;;;;;5011616;28;20463;-78
2022/03/14 14:04:28;;;;;;;5.00;2.87;;;;;;;;;;4994481;28;20501;-77
2022/03/14 14:06:58;;;;;;;7.33;3.20;;;;;;;;;;5011933;28;20689;-76
2022/03/14 14:09:26;;;;;;;5.87;2.80;;;;;;;;;;5012141;28;20473;-75
2022/03/14 14:11:57;;;;;;;3.93;2.50;;;;;;;;;;5002880;28;20865;-77
2022/03/14 14:14:26;;;;;;;3.37;2.77;;;;;;;;;;4996906;28;20815;-78
2022/03/14 14:16:54;;;;;;;5.13;2.70;;;;;;;;;;5007758;28;20446;-79
2022/03/14 14:19:24;;;;;;;4.60;2.80;;;;;;;;;;5011142;28;20803;-77
2022/03/14 14:21:55;;;;;;;6.43;2.80;;;;;;;;;;5009844;28;20451;-76
2022/03/14 14:24:23;;;;;;;4.80;3.00;;;;;;;;;;5011209;28;20443;-79
2022/03/14 14:26:51;;;;;;;7.70;3.00;;;;;;;;;;5011093;28;20470;-77
2022/03/14 14:29:33;;;;;;;4.77;2.93;;;;;;;;;;5002807;28;20512;-78
2022/03/14 14:32:15;;;;;;;4.70;3.07;;;;;;;;;;4983239;28;20450;-76
2022/03/14 14:34:43;;;;;;;5.93;2.87;;;;;;;;;;4974848;28;20428;-76
2022/03/14 14:37:11;;;;;;;5.53;2.97;;;;;;;;;;4991070;28;20837;-76
2022/03/14 14:39:39;;;;;;;4.40;2.50;;;;;;;;;;4991576;28;20452;-78
2022/03/14 14:42:07;;;;;;;4.77;2.73;;;;;;;;;;4991587;28;20464;-76
2022/03/14 14:44:35;;;;;;;6.40;2.83;;;;;;;;;;4991585;28;20458;-78
2022/03/14 14:47:02;;;;;;;6.93;3.10;;;;;;;;;;4993347;28;20479;-78
2022/03/14 14:49:30;;;;;;;6.20;2.77;;;;;;;;;;4993485;28;20466;-78
2022/03/14 14:51:58;;;;;;;3.30;2.57;;;;;;;;;;4979965;28;20467;-77